sensor_id;sensor_type;location;lat;lon;timestamp;P1;durP1;ratioP1;P2;durP2;ratioP2
20320;SDS011;10318;47.674;9.052;2022-08-18T00:00:32;4.50;;;3.05;;
20320;SDS011;10318;47.674;9.052;2022-08-18T00:03:02;5.18;;;3.17;;
20320;SDS011;10318;47.674;9.052;2022-08-18T00:05:49;3.45;;;2.90;;
20320;SDS011;10318;47.674;9.052;2022-08-18T00:08:16;4.60;;;3.17;;
20320;SDS011;10318;47.674;9.052;2022-08-18T00:10:43;3.15;;;2.83;;
20320;SDS011;10318;47.674;9.052;2022-08-18T00:13:12;3.78;;;3.45;;
20320;SDS011;10318;47.674;9.052;2022-08-18T00:15:39;3.22;;;2.92;;
20320;SDS011;10318;47.674;9.052;2022-08-18T00:18:14;3.65;;;2.83;;
20320;SDS011;10318;47.674;9.052;2022-08-18T00:20:41;3.30;;;3.00;;
20320;SDS011;10318;47.674;9.052;2022-08-18T00:23:08;3.10;;;2.70;;
20320;SDS011;10318;47.674;9.052;2022-08-18T00:25:34;4.72;;;3.25;;
20320;SDS011;10318;47.674;9.052;2022-08-18T00:28:01;5.65;;;2.80;;
20320;SDS011;10318;47.674;9.052;2022-08-18T00:30:28;3.92;;;2.95;;
20320;SDS011;10318;47.674;9.052;2022-08-18T00:32:55;3.60;;;3.30;;
20320;SDS011;10318;47.674;9.052;2022-08-18T00:35:23;4.32;;;3.10;;
20320;SDS011;10318;47.674;9.052;2022-08-18T00:37:55;4.47;;;3.03;;
20320;SDS011;10318;47.674;9.052;2022-08-18T00:40:25;4.28;;;3.15;;
20320;SDS011;10318;47.674;9.052;2022-08-18T00:42:54;4.38;;;3.33;;
20320;SDS011;10318;47.674;9.052;2022-08-18T00:45:28;4.10;;;3.10;;
20320;SDS011;10318;47.674;9.052;2022-08-18T00:47:55;6.05;;;3.10;;
20320;SDS011;10318;47.674;9.052;2022-08-18T00:50:27;3.70;;;3.15;;
20320;SDS011;10318;47.674;9.052;2022-08-18T00:52:55;4.50;;;2.88;;
20320;SDS011;10318;47.674;9.052;2022-08-18T00:55:24;4.47;;;3.22;;
20320;SDS011;10318;47.674;9.052;2022-08-18T00:57:52;3.38;;;2.67;;
20320;SDS011;10318;47.674;9.052;2022-08-18T01:00:20;3.40;;;3.10;;
20320;SDS011;10318;47.674;9.052;2022-08-18T01:02:49;3.13;;;2.83;;
20320;SDS011;10318;47.674;9.052;2022-08-18T01:05:23;5.50;;;3.60;;
20320;SDS011;10318;47.674;9.052;2022-08-18T01:07:52;5.10;;;3.30;;
20320;SDS011;10318;47.674;9.052;2022-08-18T01:10:20;3.75;;;2.80;;
20320;SDS011;10318;47.674;9.052;2022-08-18T01:12:48;3.25;;;2.95;;
20320;SDS011;10318;47.674;9.052;2022-08-18T01:15:15;4.40;;;2.90;;
20320;SDS011;10318;47.674;9.052;2022-08-18T01:17:59;4.03;;;3.25;;
20320;SDS011;10318;47.674;9.052;2022-08-18T01:23:48;5.25;;;3.22;;
20320;SDS011;10318;47.674;9.052;2022-08-18T01:26:16;5.72;;;3.38;;
20320;SDS011;10318;47.674;9.052;2022-08-18T01:28:44;5.35;;;3.58;;
20320;SDS011;10318;47.674;9.052;2022-08-18T01:31:14;3.25;;;2.97;;
20320;SDS011;10318;47.674;9.052;2022-08-18T01:33:53;4.53;;;3.00;;
20320;SDS011;10318;47.674;9.052;2022-08-18T01:36:22;3.58;;;3.10;;
20320;SDS011;10318;47.674;9.052;2022-08-18T01:38:50;3.85;;;3.10;;
20320;SDS011;10318;47.674;9.052;2022-08-18T01:41:18;3.53;;;3.15;;
20320;SDS011;10318;47.674;9.052;2022-08-18T01:43:54;3.45;;;2.90;;
20320;SDS011;10318;47.674;9.052;2022-08-18T01:46:21;4.47;;;3.53;;
20320;SDS011;10318;47.674;9.052;2022-08-18T01:48:48;3.53;;;3.00;;
20320;SDS011;10318;47.674;9.052;2022-08-18T01:51:15;4.07;;;3.10;;
20320;SDS011;10318;47.674;9.052;2022-08-18T01:53:45;4.00;;;3.25;;
20320;SDS011;10318;47.674;9.052;2022-08-18T01:56:12;3.38;;;2.92;;
20320;SDS011;10318;47.674;9.052;2022-08-18T01:58:43;3.53;;;3.20;;
20320;SDS011;10318;47.674;9.052;2022-08-18T02:01:10;3.30;;;3.00;;
20320;SDS011;10318;47.674;9.052;2022-08-18T02:03:41;3.90;;;3.50;;
20320;SDS011;10318;47.674;9.052;2022-08-18T02:06:11;4.65;;;2.95;;
20320;SDS011;10318;47.674;9.052;2022-08-18T02:08:40;4.13;;;3.42;;
20320;SDS011;10318;47.674;9.052;2022-08-18T02:11:11;4.57;;;3.38;;
20320;SDS011;10318;47.674;9.052;2022-08-18T02:13:38;3.65;;;3.15;;
20320;SDS011;10318;47.674;9.052;2022-08-18T02:16:06;3.85;;;3.50;;
20320;SDS011;10318;47.674;9.052;2022-08-18T02:18:34;5.38;;;3.75;;
20320;SDS011;10318;47.674;9.052;2022-08-18T02:21:15;3.72;;;3.15;;
20320;SDS011;10318;47.674;9.052;2022-08-18T02:23:45;3.88;;;3.47;;
20320;SDS011;10318;47.674;9.052;2022-08-18T02:26:19;4.22;;;3.17;;
20320;SDS011;10318;47.674;9.052;2022-08-18T02:28:46;3.50;;;3.20;;
20320;SDS011;10318;47.674;9.052;2022-08-18T02:31:14;4.15;;;3.20;;
20320;SDS011;10318;47.674;9.052;2022-08-18T02:33:42;3.20;;;2.90;;
20320;SDS011;10318;47.674;9.052;2022-08-18T02:36:17;4.03;;;3.45;;
20320;SDS011;10318;47.674;9.052;2022-08-18T02:38:43;3.88;;;3.40;;
20320;SDS011;10318;47.674;9.052;2022-08-18T02:41:20;4.70;;;3.55;;
20320;SDS011;10318;47.674;9.052;2022-08-18T02:43:48;6.03;;;3.45;;
20320;SDS011;10318;47.674;9.052;2022-08-18T02:46:16;3.53;;;3.03;;
20320;SDS011;10318;47.674;9.052;2022-08-18T02:48:42;4.00;;;3.30;;
20320;SDS011;10318;47.674;9.052;2022-08-18T02:51:13;4.40;;;3.42;;
20320;SDS011;10318;47.674;9.052;2022-08-18T02:53:40;5.60;;;3.33;;
20320;SDS011;10318;47.674;9.052;2022-08-18T02:59:00;5.25;;;3.60;;
20320;SDS011;10318;47.674;9.052;2022-08-18T03:01:28;4.05;;;3.50;;
20320;SDS011;10318;47.674;9.052;2022-08-18T03:03:56;4.43;;;3.65;;
20320;SDS011;10318;47.674;9.052;2022-08-18T03:06:24;4.47;;;3.72;;
20320;SDS011;10318;47.674;9.052;2022-08-18T03:08:51;3.75;;;3.33;;
20320;SDS011;10318;47.674;9.052;2022-08-18T03:11:20;3.78;;;3.40;;
20320;SDS011;10318;47.674;9.052;2022-08-18T03:13:47;4.32;;;3.13;;
20320;SDS011;10318;47.674;9.052;2022-08-18T03:16:14;4.80;;;3.70;;
20320;SDS011;10318;47.674;9.052;2022-08-18T03:18:42;8.02;;;3.20;;
20320;SDS011;10318;47.674;9.052;2022-08-18T03:21:12;3.85;;;3.28;;
20320;SDS011;10318;47.674;9.052;2022-08-18T03:23:40;4.70;;;3.22;;
20320;SDS011;10318;47.674;9.052;2022-08-18T03:26:08;3.60;;;3.15;;
20320;SDS011;10318;47.674;9.052;2022-08-18T03:28:37;5.40;;;3.28;;
20320;SDS011;10318;47.674;9.052;2022-08-18T03:31:04;4.03;;;3.33;;
20320;SDS011;10318;47.674;9.052;2022-08-18T03:33:30;3.88;;;3.42;;
20320;SDS011;10318;47.674;9.052;2022-08-18T03:36:04;4.40;;;3.30;;
20320;SDS011;10318;47.674;9.052;2022-08-18T03:38:31;4.45;;;3.45;;
20320;SDS011;10318;47.674;9.052;2022-08-18T03:40:58;5.10;;;3.38;;
20320;SDS011;10318;47.674;9.052;2022-08-18T03:43:25;3.40;;;3.10;;
20320;SDS011;10318;47.674;9.052;2022-08-18T03:46:13;4.45;;;4.00;;
20320;SDS011;10318;47.674;9.052;2022-08-18T03:48:41;4.93;;;3.97;;
20320;SDS011;10318;47.674;9.052;2022-08-18T03:51:13;4.63;;;3.58;;
20320;SDS011;10318;47.674;9.052;2022-08-18T03:53:40;3.97;;;3.35;;
20320;SDS011;10318;47.674;9.052;2022-08-18T03:56:10;4.70;;;3.70;;
20320;SDS011;10318;47.674;9.052;2022-08-18T03:58:51;4.38;;;3.65;;
20320;SDS011;10318;47.674;9.052;2022-08-18T04:01:19;5.45;;;3.60;;
20320;SDS011;10318;47.674;9.052;2022-08-18T04:03:55;5.40;;;3.90;;
20320;SDS011;10318;47.674;9.052;2022-08-18T04:06:23;4.80;;;3.70;;
20320;SDS011;10318;47.674;9.052;2022-08-18T04:08:56;5.45;;;3.42;;
20320;SDS011;10318;47.674;9.052;2022-08-18T04:11:24;3.85;;;3.45;;
20320;SDS011;10318;47.674;9.052;2022-08-18T04:13:50;7.50;;;3.85;;
20320;SDS011;10318;47.674;9.052;2022-08-18T04:16:17;5.57;;;3.40;;
20320;SDS011;10318;47.674;9.052;2022-08-18T04:18:44;6.78;;;3.72;;
20320;SDS011;10318;47.674;9.052;2022-08-18T04:21:11;3.58;;;2.97;;
20320;SDS011;10318;47.674;9.052;2022-08-18T04:23:39;5.20;;;3.38;;
20320;SDS011;10318;47.674;9.052;2022-08-18T04:26:10;6.03;;;3.58;;
20320;SDS011;10318;47.674;9.052;2022-08-18T04:28:44;3.53;;;3.22;;
20320;SDS011;10318;47.674;9.052;2022-08-18T04:31:13;3.97;;;3.60;;
20320;SDS011;10318;47.674;9.052;2022-08-18T04:33:40;4.35;;;3.67;;
20320;SDS011;10318;47.674;9.052;2022-08-18T04:36:12;4.93;;;3.65;;
20320;SDS011;10318;47.674;9.052;2022-08-18T04:38:46;4.05;;;3.50;;
20320;SDS011;10318;47.674;9.052;2022-08-18T04:41:13;6.38;;;3.80;;
20320;SDS011;10318;47.674;9.052;2022-08-18T04:43:40;5.97;;;4.55;;
20320;SDS011;10318;47.674;9.052;2022-08-18T04:46:07;7.50;;;4.25;;
20320;SDS011;10318;47.674;9.052;2022-08-18T04:48:36;5.40;;;3.90;;
20320;SDS011;10318;47.674;9.052;2022-08-18T04:51:10;5.13;;;3.70;;
20320;SDS011;10318;47.674;9.052;2022-08-18T04:53:57;4.15;;;3.65;;
20320;SDS011;10318;47.674;9.052;2022-08-18T04:56:30;3.78;;;3.38;;
20320;SDS011;10318;47.674;9.052;2022-08-18T04:59:00;5.72;;;4.30;;
20320;SDS011;10318;47.674;9.052;2022-08-18T05:01:28;5.45;;;4.20;;
20320;SDS011;10318;47.674;9.052;2022-08-18T05:03:56;4.47;;;4.07;;
20320;SDS011;10318;47.674;9.052;2022-08-18T05:06:23;5.22;;;4.72;;
20320;SDS011;10318;47.674;9.052;2022-08-18T05:08:57;8.05;;;4.22;;
20320;SDS011;10318;47.674;9.052;2022-08-18T05:11:26;5.63;;;4.50;;
20320;SDS011;10318;47.674;9.052;2022-08-18T05:13:59;7.38;;;4.65;;
20320;SDS011;10318;47.674;9.052;2022-08-18T05:16:26;6.20;;;5.00;;
20320;SDS011;10318;47.674;9.052;2022-08-18T05:18:53;6.00;;;5.38;;
20320;SDS011;10318;47.674;9.052;2022-08-18T05:21:21;7.57;;;5.80;;
20320;SDS011;10318;47.674;9.052;2022-08-18T05:23:49;6.43;;;5.80;;
20320;SDS011;10318;47.674;9.052;2022-08-18T05:26:17;5.95;;;5.35;;
20320;SDS011;10318;47.674;9.052;2022-08-18T05:28:44;7.53;;;4.63;;
20320;SDS011;10318;47.674;9.052;2022-08-18T05:31:16;6.85;;;4.90;;
20320;SDS011;10318;47.674;9.052;2022-08-18T05:33:44;11.07;;;6.15;;
20320;SDS011;10318;47.674;9.052;2022-08-18T05:38:54;5.80;;;5.20;;
20320;SDS011;10318;47.674;9.052;2022-08-18T05:41:32;5.50;;;4.95;;
20320;SDS011;10318;47.674;9.052;2022-08-18T05:44:00;5.60;;;4.97;;
20320;SDS011;10318;47.674;9.052;2022-08-18T05:49:03;5.07;;;4.53;;
20320;SDS011;10318;47.674;9.052;2022-08-18T05:51:40;5.95;;;4.40;;
20320;SDS011;10318;47.674;9.052;2022-08-18T05:54:08;6.10;;;4.75;;
20320;SDS011;10318;47.674;9.052;2022-08-18T05:56:54;5.63;;;4.70;;
20320;SDS011;10318;47.674;9.052;2022-08-18T05:59:26;4.90;;;4.40;;
20320;SDS011;10318;47.674;9.052;2022-08-18T06:02:17;4.45;;;4.05;;
20320;SDS011;10318;47.674;9.052;2022-08-18T06:04:54;4.75;;;4.25;;
20320;SDS011;10318;47.674;9.052;2022-08-18T06:07:25;4.15;;;3.78;;
20320;SDS011;10318;47.674;9.052;2022-08-18T06:09:59;5.80;;;4.47;;
20320;SDS011;10318;47.674;9.052;2022-08-18T06:12:27;5.70;;;4.40;;
20320;SDS011;10318;47.674;9.052;2022-08-18T06:14:58;6.97;;;5.18;;
20320;SDS011;10318;47.674;9.052;2022-08-18T06:28:07;5.88;;;4.28;;
20320;SDS011;10318;47.674;9.052;2022-08-18T06:33:31;5.00;;;4.13;;
20320;SDS011;10318;47.674;9.052;2022-08-18T06:38:41;8.70;;;3.88;;
20320;SDS011;10318;47.674;9.052;2022-08-18T06:41:14;4.63;;;4.22;;
20320;SDS011;10318;47.674;9.052;2022-08-18T06:44:08;5.32;;;4.60;;
20320;SDS011;10318;47.674;9.052;2022-08-18T06:49:05;5.20;;;4.70;;
20320;SDS011;10318;47.674;9.052;2022-08-18T06:51:34;5.22;;;4.25;;
20320;SDS011;10318;47.674;9.052;2022-08-18T06:56:46;6.20;;;4.45;;
20320;SDS011;10318;47.674;9.052;2022-08-18T07:01:40;7.07;;;5.55;;
20320;SDS011;10318;47.674;9.052;2022-08-18T07:04:07;7.15;;;5.95;;
20320;SDS011;10318;47.674;9.052;2022-08-18T07:06:33;9.10;;;4.55;;
20320;SDS011;10318;47.674;9.052;2022-08-18T07:09:16;5.18;;;4.40;;
20320;SDS011;10318;47.674;9.052;2022-08-18T07:14:28;5.25;;;4.70;;
20320;SDS011;10318;47.674;9.052;2022-08-18T07:17:18;5.25;;;4.47;;
20320;SDS011;10318;47.674;9.052;2022-08-18T07:19:57;6.18;;;4.38;;
20320;SDS011;10318;47.674;9.052;2022-08-18T07:22:25;5.05;;;3.97;;
20320;SDS011;10318;47.674;9.052;2022-08-18T07:25:05;4.57;;;4.13;;
20320;SDS011;10318;47.674;9.052;2022-08-18T07:30:07;5.75;;;5.13;;
20320;SDS011;10318;47.674;9.052;2022-08-18T07:35:24;5.75;;;4.93;;
20320;SDS011;10318;47.674;9.052;2022-08-18T07:40:57;5.72;;;5.03;;
20320;SDS011;10318;47.674;9.052;2022-08-18T07:45:55;6.78;;;5.38;;
20320;SDS011;10318;47.674;9.052;2022-08-18T07:48:24;8.25;;;5.65;;
20320;SDS011;10318;47.674;9.052;2022-08-18T08:01:40;8.63;;;5.47;;
20320;SDS011;10318;47.674;9.052;2022-08-18T08:06:53;6.38;;;5.70;;
20320;SDS011;10318;47.674;9.052;2022-08-18T08:09:49;6.95;;;6.25;;
20320;SDS011;10318;47.674;9.052;2022-08-18T08:20:53;7.93;;;7.13;;
20320;SDS011;10318;47.674;9.052;2022-08-18T08:23:40;8.43;;;7.10;;
20320;SDS011;10318;47.674;9.052;2022-08-18T08:26:32;6.93;;;6.28;;
20320;SDS011;10318;47.674;9.052;2022-08-18T08:34:09;8.00;;;7.00;;
20320;SDS011;10318;47.674;9.052;2022-08-18T08:36:41;8.45;;;7.38;;
20320;SDS011;10318;47.674;9.052;2022-08-18T08:39:16;10.02;;;7.32;;
20320;SDS011;10318;47.674;9.052;2022-08-18T08:41:49;10.35;;;7.28;;
20320;SDS011;10318;47.674;9.052;2022-08-18T08:44:29;9.60;;;7.55;;
20320;SDS011;10318;47.674;9.052;2022-08-18T08:47:06;7.88;;;6.90;;
20320;SDS011;10318;47.674;9.052;2022-08-18T08:52:04;10.88;;;7.75;;
20320;SDS011;10318;47.674;9.052;2022-08-18T08:54:38;11.18;;;7.55;;
20320;SDS011;10318;47.674;9.052;2022-08-18T08:57:06;9.95;;;6.97;;
20320;SDS011;10318;47.674;9.052;2022-08-18T08:59:35;7.07;;;6.05;;
20320;SDS011;10318;47.674;9.052;2022-08-18T09:04:47;10.07;;;7.28;;
20320;SDS011;10318;47.674;9.052;2022-08-18T09:07:41;10.23;;;7.45;;
20320;SDS011;10318;47.674;9.052;2022-08-18T09:15:37;9.30;;;6.60;;
20320;SDS011;10318;47.674;9.052;2022-08-18T09:18:11;7.15;;;6.45;;
20320;SDS011;10318;47.674;9.052;2022-08-18T09:23:29;7.47;;;6.47;;
20320;SDS011;10318;47.674;9.052;2022-08-18T09:25:58;7.82;;;6.93;;
20320;SDS011;10318;47.674;9.052;2022-08-18T09:36:48;8.93;;;7.38;;
20320;SDS011;10318;47.674;9.052;2022-08-18T09:42:11;9.93;;;6.70;;
20320;SDS011;10318;47.674;9.052;2022-08-18T09:50:30;11.32;;;7.63;;
20320;SDS011;10318;47.674;9.052;2022-08-18T09:52:59;9.68;;;7.38;;
20320;SDS011;10318;47.674;9.052;2022-08-18T09:55:50;9.10;;;6.80;;
20320;SDS011;10318;47.674;9.052;2022-08-18T10:03:43;7.70;;;6.95;;
20320;SDS011;10318;47.674;9.052;2022-08-18T10:06:13;8.07;;;6.40;;
20320;SDS011;10318;47.674;9.052;2022-08-18T10:08:46;6.88;;;6.15;;
20320;SDS011;10318;47.674;9.052;2022-08-18T10:13:55;7.25;;;5.78;;
20320;SDS011;10318;47.674;9.052;2022-08-18T10:27:09;7.53;;;6.00;;
20320;SDS011;10318;47.674;9.052;2022-08-18T10:29:45;10.93;;;6.38;;
20320;SDS011;10318;47.674;9.052;2022-08-18T10:34:46;7.60;;;6.22;;
20320;SDS011;10318;47.674;9.052;2022-08-18T10:39:53;6.78;;;5.53;;
20320;SDS011;10318;47.674;9.052;2022-08-18T10:42:22;5.90;;;5.30;;
20320;SDS011;10318;47.674;9.052;2022-08-18T10:45:05;6.53;;;5.10;;
20320;SDS011;10318;47.674;9.052;2022-08-18T10:47:34;6.28;;;5.07;;
20320;SDS011;10318;47.674;9.052;2022-08-18T10:50:06;6.50;;;5.65;;
20320;SDS011;10318;47.674;9.052;2022-08-18T10:55:39;5.82;;;5.22;;
20320;SDS011;10318;47.674;9.052;2022-08-18T11:03:29;6.25;;;4.70;;
20320;SDS011;10318;47.674;9.052;2022-08-18T11:06:22;5.78;;;5.25;;
20320;SDS011;10318;47.674;9.052;2022-08-18T11:08:54;5.90;;;4.97;;
20320;SDS011;10318;47.674;9.052;2022-08-18T11:11:32;5.20;;;4.70;;
20320;SDS011;10318;47.674;9.052;2022-08-18T11:19:20;6.18;;;5.30;;
20320;SDS011;10318;47.674;9.052;2022-08-18T11:21:49;5.47;;;4.85;;
20320;SDS011;10318;47.674;9.052;2022-08-18T11:24:36;13.00;;;5.47;;
20320;SDS011;10318;47.674;9.052;2022-08-18T11:27:28;5.10;;;4.60;;
20320;SDS011;10318;47.674;9.052;2022-08-18T11:29:58;5.95;;;4.45;;
20320;SDS011;10318;47.674;9.052;2022-08-18T11:32:36;6.20;;;4.63;;
20320;SDS011;10318;47.674;9.052;2022-08-18T11:35:18;6.45;;;5.03;;
20320;SDS011;10318;47.674;9.052;2022-08-18T11:37:48;4.97;;;4.47;;
20320;SDS011;10318;47.674;9.052;2022-08-18T11:40:21;6.63;;;4.70;;
20320;SDS011;10318;47.674;9.052;2022-08-18T11:50:46;4.78;;;4.28;;
20320;SDS011;10318;47.674;9.052;2022-08-18T12:06:36;6.50;;;4.38;;
20320;SDS011;10318;47.674;9.052;2022-08-18T12:09:15;15.93;;;4.68;;
20320;SDS011;10318;47.674;9.052;2022-08-18T12:12:05;4.38;;;3.80;;
20320;SDS011;10318;47.674;9.052;2022-08-18T12:14:33;5.80;;;4.30;;
20320;SDS011;10318;47.674;9.052;2022-08-18T12:17:17;4.95;;;3.92;;
20320;SDS011;10318;47.674;9.052;2022-08-18T12:19:43;5.22;;;4.40;;
20320;SDS011;10318;47.674;9.052;2022-08-18T12:22:16;6.85;;;4.20;;
20320;SDS011;10318;47.674;9.052;2022-08-18T12:24:44;6.40;;;4.35;;
20320;SDS011;10318;47.674;9.052;2022-08-18T12:27:14;4.35;;;3.90;;
20320;SDS011;10318;47.674;9.052;2022-08-18T12:29:47;3.70;;;3.40;;
20320;SDS011;10318;47.674;9.052;2022-08-18T12:32:15;4.57;;;3.78;;
20320;SDS011;10318;47.674;9.052;2022-08-18T12:35:02;5.65;;;4.00;;
20320;SDS011;10318;47.674;9.052;2022-08-18T12:37:35;5.47;;;4.35;;
20320;SDS011;10318;47.674;9.052;2022-08-18T12:40:23;4.53;;;3.50;;
20320;SDS011;10318;47.674;9.052;2022-08-18T12:42:51;4.55;;;4.10;;
20320;SDS011;10318;47.674;9.052;2022-08-18T12:45:21;5.57;;;3.70;;
20320;SDS011;10318;47.674;9.052;2022-08-18T12:47:50;7.53;;;4.25;;
20320;SDS011;10318;47.674;9.052;2022-08-18T12:50:18;5.93;;;3.85;;
20320;SDS011;10318;47.674;9.052;2022-08-18T12:52:44;5.00;;;3.85;;
20320;SDS011;10318;47.674;9.052;2022-08-18T12:55:12;7.07;;;3.97;;
20320;SDS011;10318;47.674;9.052;2022-08-18T12:57:47;4.63;;;3.72;;
20320;SDS011;10318;47.674;9.052;2022-08-18T13:00:19;5.90;;;4.32;;
20320;SDS011;10318;47.674;9.052;2022-08-18T13:02:54;4.60;;;4.07;;
20320;SDS011;10318;47.674;9.052;2022-08-18T13:05:22;4.90;;;3.92;;
20320;SDS011;10318;47.674;9.052;2022-08-18T13:07:56;4.97;;;4.47;;
20320;SDS011;10318;47.674;9.052;2022-08-18T13:10:24;4.43;;;3.63;;
20320;SDS011;10318;47.674;9.052;2022-08-18T13:13:11;4.45;;;4.05;;
20320;SDS011;10318;47.674;9.052;2022-08-18T13:15:38;6.30;;;3.90;;
20320;SDS011;10318;47.674;9.052;2022-08-18T13:18:21;4.93;;;4.30;;
20320;SDS011;10318;47.674;9.052;2022-08-18T13:20:57;7.90;;;4.38;;
20320;SDS011;10318;47.674;9.052;2022-08-18T13:23:25;6.13;;;4.20;;
20320;SDS011;10318;47.674;9.052;2022-08-18T13:25:53;7.32;;;4.38;;
20320;SDS011;10318;47.674;9.052;2022-08-18T13:28:27;5.55;;;3.92;;
20320;SDS011;10318;47.674;9.052;2022-08-18T13:30:56;5.30;;;4.18;;
20320;SDS011;10318;47.674;9.052;2022-08-18T13:33:23;5.03;;;4.15;;
20320;SDS011;10318;47.674;9.052;2022-08-18T13:36:10;5.50;;;4.03;;
20320;SDS011;10318;47.674;9.052;2022-08-18T13:38:37;4.55;;;4.18;;
20320;SDS011;10318;47.674;9.052;2022-08-18T13:41:09;5.35;;;4.20;;
20320;SDS011;10318;47.674;9.052;2022-08-18T13:43:42;4.70;;;4.20;;
20320;SDS011;10318;47.674;9.052;2022-08-18T13:46:11;5.90;;;4.30;;
20320;SDS011;10318;47.674;9.052;2022-08-18T13:48:38;4.95;;;3.90;;
20320;SDS011;10318;47.674;9.052;2022-08-18T13:51:07;6.47;;;4.57;;
20320;SDS011;10318;47.674;9.052;2022-08-18T13:53:36;5.55;;;4.47;;
20320;SDS011;10318;47.674;9.052;2022-08-18T13:56:23;4.60;;;4.13;;
20320;SDS011;10318;47.674;9.052;2022-08-18T13:58:57;6.75;;;4.60;;
20320;SDS011;10318;47.674;9.052;2022-08-18T14:01:23;7.53;;;4.93;;
20320;SDS011;10318;47.674;9.052;2022-08-18T14:04:10;5.45;;;4.50;;
20320;SDS011;10318;47.674;9.052;2022-08-18T14:06:45;5.18;;;4.57;;
20320;SDS011;10318;47.674;9.052;2022-08-18T14:09:22;5.05;;;4.47;;
20320;SDS011;10318;47.674;9.052;2022-08-18T14:12:03;4.88;;;4.05;;
20320;SDS011;10318;47.674;9.052;2022-08-18T14:14:30;5.88;;;3.55;;
20320;SDS011;10318;47.674;9.052;2022-08-18T14:16:57;4.60;;;4.10;;
20320;SDS011;10318;47.674;9.052;2022-08-18T14:19:23;5.00;;;3.67;;
20320;SDS011;10318;47.674;9.052;2022-08-18T14:22:14;7.80;;;4.60;;
20320;SDS011;10318;47.674;9.052;2022-08-18T14:25:00;5.97;;;4.10;;
20320;SDS011;10318;47.674;9.052;2022-08-18T14:27:48;6.10;;;4.13;;
20320;SDS011;10318;47.674;9.052;2022-08-18T14:30:22;4.78;;;4.28;;
20320;SDS011;10318;47.674;9.052;2022-08-18T14:32:49;4.53;;;4.13;;
20320;SDS011;10318;47.674;9.052;2022-08-18T14:35:16;5.60;;;4.38;;
20320;SDS011;10318;47.674;9.052;2022-08-18T14:38:05;4.60;;;3.80;;
20320;SDS011;10318;47.674;9.052;2022-08-18T14:40:35;4.97;;;4.00;;
20320;SDS011;10318;47.674;9.052;2022-08-18T14:43:07;5.18;;;4.20;;
20320;SDS011;10318;47.674;9.052;2022-08-18T14:45:34;4.25;;;3.72;;
20320;SDS011;10318;47.674;9.052;2022-08-18T14:48:02;4.78;;;4.20;;
20320;SDS011;10318;47.674;9.052;2022-08-18T14:50:33;4.53;;;4.13;;
20320;SDS011;10318;47.674;9.052;2022-08-18T14:53:00;7.90;;;4.38;;
20320;SDS011;10318;47.674;9.052;2022-08-18T14:55:27;4.30;;;3.88;;
20320;SDS011;10318;47.674;9.052;2022-08-18T14:57:55;8.05;;;4.10;;
20320;SDS011;10318;47.674;9.052;2022-08-18T15:00:25;4.82;;;3.80;;
20320;SDS011;10318;47.674;9.052;2022-08-18T15:02:52;6.40;;;4.38;;
20320;SDS011;10318;47.674;9.052;2022-08-18T15:05:19;7.20;;;4.10;;
20320;SDS011;10318;47.674;9.052;2022-08-18T15:07:50;7.72;;;4.35;;
20320;SDS011;10318;47.674;9.052;2022-08-18T15:10:18;6.72;;;4.00;;
20320;SDS011;10318;47.674;9.052;2022-08-18T15:12:53;5.25;;;4.18;;
20320;SDS011;10318;47.674;9.052;2022-08-18T15:15:20;7.60;;;4.20;;
20320;SDS011;10318;47.674;9.052;2022-08-18T15:17:48;5.28;;;3.67;;
20320;SDS011;10318;47.674;9.052;2022-08-18T15:20:19;7.90;;;3.80;;
20320;SDS011;10318;47.674;9.052;2022-08-18T15:22:58;3.97;;;3.58;;
20320;SDS011;10318;47.674;9.052;2022-08-18T15:25:53;4.40;;;3.90;;
20320;SDS011;10318;47.674;9.052;2022-08-18T15:28:22;4.22;;;3.63;;
20320;SDS011;10318;47.674;9.052;2022-08-18T15:30:50;6.50;;;3.90;;
20320;SDS011;10318;47.674;9.052;2022-08-18T15:33:37;5.50;;;4.03;;
20320;SDS011;10318;47.674;9.052;2022-08-18T15:36:05;4.32;;;3.78;;
20320;SDS011;10318;47.674;9.052;2022-08-18T15:38:35;5.15;;;3.72;;
20320;SDS011;10318;47.674;9.052;2022-08-18T15:41:02;6.35;;;3.88;;
20320;SDS011;10318;47.674;9.052;2022-08-18T15:43:34;6.07;;;3.70;;
20320;SDS011;10318;47.674;9.052;2022-08-18T15:46:11;5.68;;;3.90;;
20320;SDS011;10318;47.674;9.052;2022-08-18T15:48:42;5.40;;;3.95;;
20320;SDS011;10318;47.674;9.052;2022-08-18T15:51:09;6.70;;;4.05;;
20320;SDS011;10318;47.674;9.052;2022-08-18T15:53:38;4.53;;;3.55;;
20320;SDS011;10318;47.674;9.052;2022-08-18T15:56:22;4.93;;;4.00;;
20320;SDS011;10318;47.674;9.052;2022-08-18T15:58:51;4.40;;;3.83;;
20320;SDS011;10318;47.674;9.052;2022-08-18T16:01:19;5.10;;;4.10;;
20320;SDS011;10318;47.674;9.052;2022-08-18T16:03:58;5.75;;;4.25;;
20320;SDS011;10318;47.674;9.052;2022-08-18T16:06:26;5.97;;;4.43;;
20320;SDS011;10318;47.674;9.052;2022-08-18T16:08:58;5.10;;;4.45;;
20320;SDS011;10318;47.674;9.052;2022-08-18T16:11:25;5.38;;;4.32;;
20320;SDS011;10318;47.674;9.052;2022-08-18T16:13:55;5.22;;;4.72;;
20320;SDS011;10318;47.674;9.052;2022-08-18T16:16:24;6.10;;;4.90;;
20320;SDS011;10318;47.674;9.052;2022-08-18T16:19:01;6.43;;;5.53;;
20320;SDS011;10318;47.674;9.052;2022-08-18T16:21:29;6.38;;;5.15;;
20320;SDS011;10318;47.674;9.052;2022-08-18T16:23:55;9.13;;;6.10;;
20320;SDS011;10318;47.674;9.052;2022-08-18T16:26:22;7.53;;;5.88;;
20320;SDS011;10318;47.674;9.052;2022-08-18T16:28:50;10.98;;;7.93;;
20320;SDS011;10318;47.674;9.052;2022-08-18T16:31:18;7.80;;;7.00;;
20320;SDS011;10318;47.674;9.052;2022-08-18T16:33:53;10.55;;;7.70;;
20320;SDS011;10318;47.674;9.052;2022-08-18T16:36:21;11.05;;;8.20;;
20320;SDS011;10318;47.674;9.052;2022-08-18T16:38:51;19.45;;;11.20;;
20320;SDS011;10318;47.674;9.052;2022-08-18T16:41:19;15.20;;;10.85;;
20320;SDS011;10318;47.674;9.052;2022-08-18T16:43:53;15.40;;;9.82;;
20320;SDS011;10318;47.674;9.052;2022-08-18T16:46:23;13.02;;;10.80;;
20320;SDS011;10318;47.674;9.052;2022-08-18T16:48:56;13.80;;;10.52;;
20320;SDS011;10318;47.674;9.052;2022-08-18T16:51:24;11.85;;;10.65;;
20320;SDS011;10318;47.674;9.052;2022-08-18T16:53:51;11.70;;;10.48;;
20320;SDS011;10318;47.674;9.052;2022-08-18T16:56:20;14.60;;;10.02;;
20320;SDS011;10318;47.674;9.052;2022-08-18T16:58:47;13.20;;;11.15;;
20320;SDS011;10318;47.674;9.052;2022-08-18T17:01:32;14.02;;;9.52;;
20320;SDS011;10318;47.674;9.052;2022-08-18T17:04:19;10.75;;;9.63;;
20320;SDS011;10318;47.674;9.052;2022-08-18T17:06:48;11.20;;;9.77;;
20320;SDS011;10318;47.674;9.052;2022-08-18T17:09:15;12.80;;;9.77;;
20320;SDS011;10318;47.674;9.052;2022-08-18T17:11:42;10.25;;;8.57;;
20320;SDS011;10318;47.674;9.052;2022-08-18T17:14:17;10.10;;;9.07;;
20320;SDS011;10318;47.674;9.052;2022-08-18T17:16:46;9.20;;;8.30;;
20320;SDS011;10318;47.674;9.052;2022-08-18T17:19:13;9.00;;;8.10;;
20320;SDS011;10318;47.674;9.052;2022-08-18T17:21:40;8.93;;;8.02;;
20320;SDS011;10318;47.674;9.052;2022-08-18T17:24:08;8.20;;;7.40;;
20320;SDS011;10318;47.674;9.052;2022-08-18T17:32:13;7.82;;;7.03;;
20320;SDS011;10318;47.674;9.052;2022-08-18T17:34:46;8.18;;;6.60;;
20320;SDS011;10318;47.674;9.052;2022-08-18T17:37:17;7.22;;;6.53;;
20320;SDS011;10318;47.674;9.052;2022-08-18T17:39:49;9.25;;;6.72;;
20320;SDS011;10318;47.674;9.052;2022-08-18T17:42:19;7.18;;;6.47;;
20320;SDS011;10318;47.674;9.052;2022-08-18T17:44:55;6.90;;;6.30;;
20320;SDS011;10318;47.674;9.052;2022-08-18T17:47:24;7.10;;;6.40;;
20320;SDS011;10318;47.674;9.052;2022-08-18T17:49:52;7.93;;;6.93;;
20320;SDS011;10318;47.674;9.052;2022-08-18T17:53:04;7.88;;;7.07;;
20320;SDS011;10318;47.674;9.052;2022-08-18T17:55:35;8.40;;;7.60;;
20320;SDS011;10318;47.674;9.052;2022-08-18T17:58:19;9.70;;;8.00;;
20320;SDS011;10318;47.674;9.052;2022-08-18T18:00:46;9.07;;;8.18;;
20320;SDS011;10318;47.674;9.052;2022-08-18T18:03:13;8.82;;;7.93;;